Time;durP1;ratioP1;P1;durP2;ratioP2;P2;SDS_P1;SDS_P2;PMS_P1;PMS_P2;Temp;Humidity;BMP_temperature;BMP_pressure;BME280_temperature;BME280_humidity;BME280_pressure;Samples;Min_cycle;Max_cycle;Signal;HPM_P1;HPM_P2
2024/03/26 00:00:37;;;;;;;10.50;4.20;;;;;;;-146.25;100.00;52497.97;2097456;28;20937;-67
2024/03/26 00:01:38;;;;;;;12.75;4.57;;;;;;;-146.25;100.00;52550.69;2105704;28;20807;-68
2024/03/26 00:02:39;;;;;;;11.75;4.20;;;;;;;-146.25;100.00;52518.25;2105934;28;20040;-66
2024/03/26 00:03:40;;;;;;;10.25;4.15;;;;;;;-146.25;100.00;52546.63;2097273;28;20036;-66
2024/03/26 00:04:41;;;;;;;7.28;4.20;;;;;;;-146.25;100.00;52540.53;2097241;28;20081;-66
2024/03/26 00:05:42;;;;;;;10.23;4.13;;;;;;;-146.25;100.00;52526.34;2105154;28;20040;-66
2024/03/26 00:06:43;;;;;;;10.65;3.80;;;;;;;-146.25;100.00;52530.41;2114334;28;20373;-66
2024/03/26 00:07:43;;;;;;;11.00;3.83;;;;;;;-146.25;100.00;52542.56;2105181;28;20041;-66
2024/03/26 00:08:44;;;;;;;9.27;3.72;;;;;;;-146.25;100.00;52564.88;2105367;28;20487;-67
2024/03/26 00:09:45;;;;;;;9.00;3.60;;;;;;;-146.25;100.00;52550.69;2105182;28;20040;-66
2024/03/26 00:10:46;;;;;;;13.43;4.15;;;;;;;-146.25;100.00;52554.75;2097311;28;20099;-65
2024/03/26 00:11:46;;;;;;;12.20;4.60;;;;;;;-146.25;100.00;52562.84;2097324;28;20044;-65
2024/03/26 00:12:47;;;;;;;7.97;3.67;;;;;;;-146.25;100.00;52552.72;2097269;28;20167;-66
2024/03/26 00:13:48;;;;;;;10.20;4.28;;;;;;;-146.25;100.00;52566.91;2097046;28;20470;-67
2024/03/26 00:14:49;;;;;;;11.73;4.13;;;;;;;-146.25;100.00;52554.75;2096956;28;20052;-65
2024/03/26 00:15:53;;;;;;;11.43;4.40;;;;;;;-146.25;100.00;52522.28;2097806;28;20033;-67
2024/03/26 00:16:54;;;;;;;7.75;3.70;;;;;;;-146.25;100.00;52568.94;2097028;28;20072;-66
2024/03/26 00:17:55;;;;;;;9.13;3.90;;;;;;;-146.25;100.00;52554.75;2097245;28;20705;-67
2024/03/26 00:18:56;;;;;;;11.25;4.10;;;;;;;-146.25;100.00;52544.59;2097091;28;20041;-65
2024/03/26 00:19:57;;;;;;;10.73;4.20;;;;;;;-146.25;100.00;52556.75;2097410;28;20499;-67
2024/03/26 00:20:57;;;;;;;9.52;3.72;;;;;;;-146.25;100.00;52579.06;2105081;28;20074;-66
2024/03/26 00:21:58;;;;;;;11.05;4.82;;;;;;;-146.25;100.00;52550.69;2097435;28;20543;-66
2024/03/26 00:22:59;;;;;;;6.75;3.58;;;;;;;-146.25;100.00;52546.63;2096906;28;20048;-66
2024/03/26 00:24:03;;;;;;;10.13;4.18;;;;;;;-146.25;100.00;52558.78;2097392;28;20510;-66
2024/03/26 00:25:04;;;;;;;6.05;3.83;;;;;;;-146.25;100.00;52562.84;2105691;28;20939;-66
2024/03/26 00:26:05;;;;;;;12.30;4.40;;;;;;;-146.25;100.00;52556.75;2105413;28;20143;-66
2024/03/26 00:27:06;;;;;;;13.35;4.38;;;;;;;-146.25;100.00;52562.84;2096966;28;20037;-66
2024/03/26 00:28:07;;;;;;;11.13;4.00;;;;;;;-146.25;100.00;52526.34;2097311;28;20041;-66
2024/03/26 00:29:10;;;;;;;12.38;3.78;;;;;;;-146.25;100.00;52542.56;2096694;28;20029;-67
2024/03/26 00:30:11;;;;;;;13.63;4.53;;;;;;;-146.25;100.00;52534.47;2097692;28;20037;-67
2024/03/26 00:31:14;;;;;;;11.27;4.45;;;;;;;-146.25;100.00;52526.34;2097209;28;20136;-66
2024/03/26 00:32:15;;;;;;;10.10;4.25;;;;;;;-146.25;100.00;52556.75;2097242;28;20041;-67
2024/03/26 00:33:16;;;;;;;9.88;4.45;;;;;;;-146.25;100.00;52595.28;2097092;28;20041;-67
2024/03/26 00:34:17;;;;;;;8.25;3.70;;;;;;;-146.25;100.00;52526.34;2097014;28;20052;-66
2024/03/26 00:35:17;;;;;;;7.22;3.65;;;;;;;-146.25;100.00;52601.38;2104960;28;20040;-67
2024/03/26 00:36:18;;;;;;;10.70;3.85;;;;;;;-146.25;100.00;52562.84;2096870;28;20494;-67
2024/03/26 00:37:19;;;;;;;13.20;4.18;;;;;;;-146.25;100.00;52524.31;2096866;28;20048;-66
2024/03/26 00:38:20;;;;;;;11.25;3.90;;;;;;;-146.25;100.00;52532.44;2097402;28;20381;-66
2024/03/26 00:39:20;;;;;;;13.18;4.60;;;;;;;-146.25;100.00;52534.47;2096959;28;20072;-64
2024/03/26 00:40:21;;;;;;;11.55;4.05;;;;;;;-146.25;100.00;52524.31;2088861;28;20046;-66
2024/03/26 00:41:22;;;;;;;8.05;3.72;;;;;;;-146.25;100.00;52542.56;2088694;28;20546;-64
2024/03/26 00:42:23;;;;;;;11.07;3.85;;;;;;;-146.25;100.00;52542.56;2097205;28;20037;-67
2024/03/26 00:43:24;;;;;;;7.68;3.80;;;;;;;-146.25;100.00;52552.72;2096852;28;20071;-65
2024/03/26 00:44:24;;;;;;;8.13;3.50;;;;;;;-146.25;100.00;52534.47;2088993;28;20045;-66
2024/03/26 00:45:25;;;;;;;9.00;4.22;;;;;;;-146.25;100.00;52540.53;2088387;28;20077;-66
2024/03/26 00:46:26;;;;;;;8.77;4.05;;;;;;;-146.25;100.00;52534.47;2097207;28;20060;-67
2024/03/26 00:47:27;;;;;;;8.75;3.83;;;;;;;-146.25;100.00;52522.28;2096681;28;20040;-66
2024/03/26 00:48:28;;;;;;;9.43;3.53;;;;;;;-146.25;100.00;52544.59;2096513;28;20572;-66
2024/03/26 00:49:29;;;;;;;9.43;3.75;;;;;;;-146.25;100.00;52532.44;2096606;28;20041;-67
2024/03/26 00:50:29;;;;;;;13.73;3.45;;;;;;;-146.25;100.00;52548.66;2096836;28;20091;-66
2024/03/26 00:51:30;;;;;;;10.88;4.03;;;;;;;-146.25;100.00;52546.63;2096839;28;20045;-66
2024/03/26 00:52:31;;;;;;;12.13;3.78;;;;;;;-146.25;100.00;52568.94;2097015;28;20074;-67
2024/03/26 00:53:32;;;;;;;7.72;4.13;;;;;;;-146.25;100.00;52558.78;2105465;28;20051;-66
2024/03/26 00:54:33;;;;;;;11.18;4.20;;;;;;;-146.25;100.00;52585.16;2105436;28;20114;-67
2024/03/26 00:55:34;;;;;;;11.70;3.25;;;;;;;-146.25;100.00;52536.50;2096269;28;20045;-66
2024/03/26 00:56:34;;;;;;;9.50;3.88;;;;;;;-146.25;100.00;52514.19;2096020;28;20045;-66
2024/03/26 00:57:35;;;;;;;7.75;4.13;;;;;;;-146.25;100.00;52558.78;2097125;28;20119;-67
2024/03/26 00:58:38;;;;;;;10.13;3.80;;;;;;;-146.25;100.00;52528.38;2096730;28;20091;-66
2024/03/26 00:59:39;;;;;;;9.15;3.90;;;;;;;-146.25;100.00;52522.28;2089044;28;20045;-67
2024/03/26 01:00:40;;;;;;;12.13;3.67;;;;;;;-146.25;100.00;52575.00;2088278;28;20042;-66
2024/03/26 01:01:41;;;;;;;11.20;3.50;;;;;;;-146.25;100.00;52556.75;2097155;28;20567;-66
2024/03/26 01:02:41;;;;;;;8.45;3.58;;;;;;;-146.25;100.00;52536.50;2096911;28;20553;-66
2024/03/26 01:03:51;;;;;;;9.50;4.07;;;;;;;-146.25;100.00;52500.00;2097031;28;20059;-67
2024/03/26 01:04:52;;;;;;;14.57;3.97;;;;;;;-146.25;100.00;52546.63;2098174;28;20105;-66
2024/03/26 01:05:55;;;;;;;9.73;3.30;;;;;;;-146.25;100.00;52540.53;2096506;28;20045;-66
2024/03/26 01:06:56;;;;;;;8.60;3.80;;;;;;;-146.25;100.00;52570.97;2097138;28;20037;-66
2024/03/26 01:07:56;;;;;;;9.48;3.65;;;;;;;-146.25;100.00;52510.13;2094077;28;20056;-67
2024/03/26 01:08:57;;;;;;;8.60;3.70;;;;;;;-146.25;100.00;52575.00;2096500;28;20044;-66
2024/03/26 01:09:58;;;;;;;9.02;3.67;;;;;;;-146.25;100.00;52530.41;2088597;28;20042;-67
2024/03/26 01:10:59;;;;;;;9.40;3.50;;;;;;;-146.25;100.00;52562.84;2088078;28;20185;-66
2024/03/26 01:12:00;;;;;;;13.35;3.95;;;;;;;-146.25;100.00;52573.00;2096419;28;20140;-66
2024/03/26 01:13:00;;;;;;;8.68;3.65;;;;;;;-146.25;100.00;52558.78;2096341;28;20048;-66
2024/03/26 01:14:01;;;;;;;10.63;3.97;;;;;;;-146.25;100.00;52540.53;2096931;28;20168;-66
2024/03/26 01:15:02;;;;;;;11.18;4.10;;;;;;;-146.25;100.00;52566.91;2096703;28;20037;-66
2024/03/26 01:16:04;;;;;;;8.38;3.40;;;;;;;-146.25;100.00;52552.72;2096906;28;20044;-66
2024/03/26 01:17:05;;;;;;;11.20;3.67;;;;;;;-146.25;100.00;52526.34;2096984;28;20045;-66
2024/03/26 01:18:07;;;;;;;8.52;3.60;;;;;;;-146.25;100.00;52546.63;2096933;28;20045;-67
2024/03/26 01:19:07;;;;;;;12.02;3.92;;;;;;;-146.25;100.00;52530.41;2096584;28;20037;-66
2024/03/26 01:20:09;;;;;;;8.02;3.25;;;;;;;-146.25;100.00;52573.00;2096688;28;20045;-66
2024/03/26 01:21:10;;;;;;;10.65;3.92;;;;;;;-146.25;100.00;52502.03;2088717;28;20060;-66
2024/03/26 01:22:10;;;;;;;11.30;4.28;;;;;;;-146.25;100.00;52536.50;2097157;28;20044;-66
2024/03/26 01:23:11;;;;;;;11.10;3.60;;;;;;;-146.25;100.00;52510.13;2104890;28;20046;-66
2024/03/26 01:24:12;;;;;;;10.05;3.78;;;;;;;-146.25;100.00;52554.75;2096935;28;20090;-66
2024/03/26 01:25:13;;;;;;;7.07;3.50;;;;;;;-146.25;100.00;52546.63;2088142;28;20042;-66
2024/03/26 01:26:14;;;;;;;8.82;3.97;;;;;;;-146.25;100.00;52542.56;2096474;28;20801;-66
2024/03/26 01:27:15;;;;;;;9.77;3.45;;;;;;;-146.25;100.00;52558.78;2087944;28;20046;-66
2024/03/26 01:28:16;;;;;;;6.85;3.53;;;;;;;-146.25;100.00;52568.94;2097115;28;20415;-66
2024/03/26 01:29:16;;;;;;;8.85;3.60;;;;;;;-146.25;100.00;52566.91;2096131;28;20091;-66
2024/03/26 01:30:19;;;;;;;10.27;3.65;;;;;;;-146.25;100.00;52540.53;2088491;28;20073;-66
2024/03/26 01:31:22;;;;;;;11.25;4.00;;;;;;;-146.25;100.00;52546.63;2080132;28;20104;-67
2024/03/26 01:32:23;;;;;;;9.02;3.10;;;;;;;-146.25;100.00;52542.56;2097346;28;20029;-66
2024/03/26 01:33:24;;;;;;;8.70;3.30;;;;;;;-146.25;100.00;52554.75;2113561;28;20113;-66
2024/03/26 01:34:25;;;;;;;13.65;3.95;;;;;;;-146.25;100.00;52566.91;2096567;28;20052;-67
2024/03/26 01:35:26;;;;;;;11.07;3.00;;;;;;;-146.25;100.00;52554.75;2087991;28;20115;-67
2024/03/26 01:36:27;;;;;;;8.80;3.33;;;;;;;-146.25;100.00;52516.22;2097085;28;20045;-66
2024/03/26 01:37:28;;;;;;;7.78;3.60;;;;;;;-146.25;100.00;52540.53;2096147;28;20531;-66
2024/03/26 01:38:28;;;;;;;10.45;3.50;;;;;;;-146.25;100.00;52548.66;2096681;28;20041;-66
2024/03/26 01:39:29;;;;;;;8.27;3.17;;;;;;;-146.25;100.00;52522.28;2096372;28;20088;-65
2024/03/26 01:40:30;;;;;;;9.38;3.22;;;;;;;-146.25;100.00;52544.59;2096829;28;20041;-65
2024/03/26 01:41:31;;;;;;;9.57;3.28;;;;;;;-146.25;100.00;52552.72;2105040;28;20049;-66
2024/03/26 01:42:32;;;;;;;11.20;3.65;;;;;;;-146.25;100.00;52564.88;2105269;28;20071;-66
2024/03/26 01:43:33;;;;;;;6.50;3.10;;;;;;;-146.25;100.00;52583.13;2105472;28;20037;-67
2024/03/26 01:44:34;;;;;;;13.52;3.67;;;;;;;-146.25;100.00;52583.13;2104995;28;20048;-66
2024/03/26 01:45:35;;;;;;;12.88;3.58;;;;;;;-146.25;100.00;52566.91;2104689;28;20940;-66
2024/03/26 01:46:37;;;;;;;9.32;3.40;;;;;;;-146.25;100.00;52570.97;2105227;28;20045;-65
2024/03/26 01:47:38;;;;;;;9.93;3.40;;;;;;;-146.25;100.00;52544.59;2096717;28;20912;-66
2024/03/26 01:48:39;;;;;;;11.63;3.50;;;;;;;-146.25;100.00;52573.00;2104930;28;20032;-67
2024/03/26 01:49:40;;;;;;;10.30;3.92;;;;;;;-146.25;100.00;52536.50;2104372;28;20048;-66
2024/03/26 01:50:41;;;;;;;10.85;3.80;;;;;;;-146.25;100.00;52530.41;2096726;28;20041;-66
2024/03/26 01:51:44;;;;;;;10.25;3.38;;;;;;;-146.25;100.00;52522.28;2088331;28;20042;-66
2024/03/26 01:52:45;;;;;;;8.70;3.22;;;;;;;-146.25;100.00;52548.66;2088060;28;20038;-66
2024/03/26 01:53:49;;;;;;;7.88;3.15;;;;;;;-146.25;100.00;52550.69;2096717;28;20045;-65
2024/03/26 01:54:51;;;;;;;9.68;3.65;;;;;;;-146.25;100.00;52554.75;2088745;28;20100;-66
2024/03/26 01:55:52;;;;;;;8.18;3.58;;;;;;;-146.25;100.00;52544.59;2096826;28;20037;-66
2024/03/26 01:56:56;;;;;;;7.50;3.50;;;;;;;-146.25;100.00;52552.72;2096373;28;20045;-66
2024/03/26 01:57:59;;;;;;;8.80;3.45;;;;;;;-146.25;100.00;52542.56;2088602;28;20072;-67
2024/03/26 01:59:00;;;;;;;10.60;3.63;;;;;;;-146.25;100.00;52554.75;2088758;28;20034;-66
2024/03/26 02:00:01;;;;;;;9.15;3.63;;;;;;;-146.25;100.00;52568.94;2096639;28;20033;-66
2024/03/26 02:01:13;;;;;;;9.95;3.40;;;;;;;-146.25;100.00;52550.69;2091314;28;20138;-66
2024/03/26 02:02:14;;;;;;;10.52;3.65;;;;;;;-146.25;100.00;52524.31;2096507;28;20327;-67
2024/03/26 02:03:15;;;;;;;7.63;3.35;;;;;;;-146.25;100.00;52542.56;2088063;28;20038;-66
2024/03/26 02:04:15;;;;;;;11.80;3.90;;;;;;;-146.25;100.00;52532.44;2088298;28;20531;-67
2024/03/26 02:05:16;;;;;;;13.50;3.90;;;;;;;-146.25;100.00;52514.19;2088759;28;20041;-66
2024/03/26 02:06:17;;;;;;;11.32;3.90;;;;;;;-146.25;100.00;52508.09;2096606;28;20037;-65
2024/03/26 02:07:20;;;;;;;16.48;3.63;;;;;;;-146.25;100.00;52550.69;2087883;28;20064;-66
2024/03/26 02:08:23;;;;;;;9.05;3.50;;;;;;;-146.25;100.00;52524.31;2087849;28;20112;-67
2024/03/26 02:09:24;;;;;;;10.45;3.47;;;;;;;-146.25;100.00;52522.28;2104702;28;20043;-67
2024/03/26 02:10:28;;;;;;;9.30;3.40;;;;;;;-146.25;100.00;52546.63;2096495;28;20041;-66
2024/03/26 02:11:30;;;;;;;9.20;3.55;;;;;;;-146.25;100.00;52591.25;2088728;28;20033;-66
2024/03/26 02:12:31;;;;;;;9.80;3.17;;;;;;;-146.25;100.00;52554.75;2088328;28;20088;-66
2024/03/26 02:13:32;;;;;;;7.72;3.40;;;;;;;-146.25;100.00;52552.72;2088140;28;20095;-67
2024/03/26 02:14:35;;;;;;;7.25;3.30;;;;;;;-146.25;100.00;52526.34;2096543;28;20044;-67
2024/03/26 02:15:36;;;;;;;8.25;3.30;;;;;;;-146.25;100.00;52552.72;2096634;28;20165;-66
2024/03/26 02:16:36;;;;;;;11.88;3.25;;;;;;;-146.25;100.00;52530.41;2096588;28;20047;-67
2024/03/26 02:17:37;;;;;;;10.90;3.28;;;;;;;-146.25;100.00;52546.63;2096448;28;20045;-66
2024/03/26 02:18:38;;;;;;;8.00;3.47;;;;;;;-146.25;100.00;52550.69;2096352;28;20045;-66
2024/03/26 02:19:39;;;;;;;9.80;3.92;;;;;;;-146.25;100.00;52550.69;2096370;28;20052;-65
2024/03/26 02:20:40;;;;;;;8.65;3.13;;;;;;;-146.25;100.00;52534.47;2088161;28;20088;-64
2024/03/26 02:21:41;;;;;;;10.07;3.25;;;;;;;-146.25;100.00;52562.84;2087798;28;20049;-65
2024/03/26 02:22:41;;;;;;;10.70;3.25;;;;;;;-146.25;100.00;52542.56;2088101;28;20038;-65
2024/03/26 02:23:42;;;;;;;8.73;2.97;;;;;;;-146.25;100.00;52566.91;2088574;28;20029;-65
2024/03/26 02:24:43;;;;;;;10.75;3.30;;;;;;;-146.25;100.00;52546.63;2088316;28;20807;-65
2024/03/26 02:25:44;;;;;;;8.70;3.10;;;;;;;-146.25;100.00;52546.63;2087388;28;20052;-66
2024/03/26 02:26:45;;;;;;;8.32;3.00;;;;;;;-146.25;100.00;52548.66;2097106;28;20040;-67
2024/03/26 02:27:48;;;;;;;10.80;3.33;;;;;;;-146.25;100.00;52558.78;2095808;28;20510;-66
2024/03/26 02:28:49;;;;;;;8.77;3.47;;;;;;;-146.25;100.00;52530.41;2096649;28;20925;-66
2024/03/26 02:29:50;;;;;;;8.07;2.95;;;;;;;-146.25;100.00;52548.66;2096294;28;20037;-66
2024/03/26 02:30:51;;;;;;;7.85;3.22;;;;;;;-146.25;100.00;52568.94;2088066;28;20518;-66
2024/03/26 02:31:51;;;;;;;9.85;3.10;;;;;;;-146.25;100.00;52558.78;2087911;28;20045;-66
2024/03/26 02:32:52;;;;;;;12.45;3.17;;;;;;;-146.25;100.00;52583.13;2096572;28;20040;-65
2024/03/26 02:33:53;;;;;;;7.20;2.80;;;;;;;-146.25;100.00;52552.72;2104393;28;20048;-66
2024/03/26 02:34:54;;;;;;;8.38;2.80;;;;;;;-146.25;100.00;52514.19;2104695;28;20040;-66
2024/03/26 02:35:54;;;;;;;7.40;2.90;;;;;;;-146.25;100.00;52573.00;2104576;28;20075;-66
2024/03/26 02:36:55;;;;;;;8.18;3.28;;;;;;;-146.25;100.00;52564.88;2104675;28;20041;-66
2024/03/26 02:37:56;;;;;;;9.88;3.22;;;;;;;-146.25;100.00;52518.25;2095968;28;20396;-66
2024/03/26 02:39:01;;;;;;;10.55;3.45;;;;;;;-146.25;100.00;52550.69;2096621;28;20143;-66
2024/03/26 02:40:03;;;;;;;7.45;3.10;;;;;;;-146.25;100.00;52597.31;2096493;28;20833;-66
2024/03/26 02:41:04;;;;;;;8.20;3.33;;;;;;;-146.25;100.00;52554.75;2104792;28;20080;-66
2024/03/26 02:42:05;;;;;;;7.85;3.28;;;;;;;-146.25;100.00;52577.03;2096219;28;20032;-66
2024/03/26 02:43:06;;;;;;;9.63;3.08;;;;;;;-146.25;100.00;52570.97;2096666;28;20040;-66
2024/03/26 02:44:07;;;;;;;7.43;3.10;;;;;;;-146.25;100.00;52558.78;2096549;28;20045;-66
2024/03/26 02:45:13;;;;;;;9.93;3.20;;;;;;;-146.25;100.00;52524.31;2104740;28;20087;-66
2024/03/26 02:46:13;;;;;;;7.82;2.90;;;;;;;-146.25;100.00;52556.75;2096840;28;20092;-67
2024/03/26 02:47:16;;;;;;;11.57;3.33;;;;;;;-146.25;100.00;52530.41;2096324;28;20045;-66
2024/03/26 02:48:19;;;;;;;12.90;3.35;;;;;;;-146.25;100.00;52568.94;2096143;28;20049;-67
2024/03/26 02:49:20;;;;;;;5.80;3.05;;;;;;;-146.25;100.00;52546.63;2096858;28;20099;-67
2024/03/26 02:50:23;;;;;;;9.15;3.30;;;;;;;-146.25;100.00;52560.81;2096226;28;20021;-65
2024/03/26 02:51:25;;;;;;;7.95;3.38;;;;;;;-146.25;100.00;52552.72;2096252;28;20040;-65
2024/03/26 02:52:26;;;;;;;9.00;3.05;;;;;;;-146.25;100.00;52568.94;2096031;28;20037;-68
2024/03/26 02:53:26;;;;;;;9.75;3.35;;;;;;;-146.25;100.00;52566.91;2096188;28;20056;-67
2024/03/26 02:54:27;;;;;;;10.73;3.05;;;;;;;-146.25;100.00;52526.34;2104719;28;20056;-67
2024/03/26 02:55:30;;;;;;;7.13;3.20;;;;;;;-146.25;100.00;52546.63;2104819;28;20086;-67
2024/03/26 02:56:31;;;;;;;7.20;3.05;;;;;;;-146.25;100.00;52540.53;2096604;28;20044;-67
2024/03/26 02:57:32;;;;;;;6.53;3.17;;;;;;;-146.25;100.00;52575.00;2096527;28;20384;-67
2024/03/26 02:58:33;;;;;;;8.50;3.47;;;;;;;-146.25;100.00;52552.72;2096061;28;20052;-67
2024/03/26 02:59:34;;;;;;;9.63;3.25;;;;;;;-146.25;100.00;52556.75;2096455;28;20522;-67
2024/03/26 03:00:35;;;;;;;9.60;3.45;;;;;;;-146.25;100.00;52562.84;2095210;28;20025;-67
2024/03/26 03:01:36;;;;;;;8.13;3.42;;;;;;;-146.25;100.00;52542.56;2096301;28;20041;-67
2024/03/26 03:02:39;;;;;;;14.85;3.28;;;;;;;-146.25;100.00;52546.63;2104774;28;20037;-67
2024/03/26 03:03:43;;;;;;;7.03;2.85;;;;;;;-146.25;100.00;52526.34;2104317;28;20090;-66
2024/03/26 03:04:44;;;;;;;6.53;3.10;;;;;;;-146.25;100.00;52550.69;2096515;28;20171;-66
2024/03/26 03:05:45;;;;;;;9.75;3.63;;;;;;;-146.25;100.00;52583.13;2096133;28;20846;-67
2024/03/26 03:06:46;;;;;;;6.13;2.90;;;;;;;-146.25;100.00;52550.69;2096334;28;20095;-69
2024/03/26 03:07:47;;;;;;;14.40;3.80;;;;;;;-146.25;100.00;52528.38;2095898;28;20025;-66
2024/03/26 03:08:48;;;;;;;11.60;3.22;;;;;;;-146.25;100.00;52544.59;2104552;28;20045;-66
2024/03/26 03:09:49;;;;;;;11.27;3.15;;;;;;;-146.25;100.00;52544.59;2112813;28;20044;-66
2024/03/26 03:10:49;;;;;;;8.15;3.30;;;;;;;-146.25;100.00;52558.78;2096608;28;20408;-66
2024/03/26 03:11:50;;;;;;;8.63;3.33;;;;;;;-146.25;100.00;52550.69;2087870;28;20044;-66
2024/03/26 03:12:53;;;;;;;9.55;3.35;;;;;;;-146.25;100.00;52532.44;2096231;28;20045;-66
2024/03/26 03:13:54;;;;;;;6.88;2.80;;;;;;;-146.25;100.00;52562.84;2096257;28;20036;-66
2024/03/26 03:14:55;;;;;;;7.13;3.17;;;;;;;-146.25;100.00;52566.91;2087620;28;20109;-67
2024/03/26 03:15:55;;;;;;;9.77;3.45;;;;;;;-146.25;100.00;52546.63;2087572;28;20038;-67
2024/03/26 03:16:56;;;;;;;8.88;3.30;;;;;;;-146.25;100.00;52510.13;2096299;28;20427;-67
2024/03/26 03:17:57;;;;;;;6.90;3.20;;;;;;;-146.25;100.00;52550.69;2096195;28;20045;-66
2024/03/26 03:18:58;;;;;;;10.23;3.20;;;;;;;-146.25;100.00;52570.97;2096209;28;20407;-66
2024/03/26 03:19:58;;;;;;;8.05;3.30;;;;;;;-146.25;100.00;52520.28;2097346;28;20037;-66
2024/03/26 03:20:59;;;;;;;8.10;2.95;;;;;;;-146.25;100.00;52544.59;2106256;28;20048;-65
2024/03/26 03:22:00;;;;;;;9.10;3.33;;;;;;;-146.25;100.00;52528.38;2105530;28;20465;-66
2024/03/26 03:23:03;;;;;;;8.68;3.13;;;;;;;-146.25;100.00;52591.25;2097659;28;20045;-66
2024/03/26 03:24:04;;;;;;;7.30;2.83;;;;;;;-146.25;100.00;52534.47;2088858;28;20863;-66
2024/03/26 03:25:08;;;;;;;8.45;3.42;;;;;;;-146.25;100.00;52583.13;2089229;28;20040;-65
2024/03/26 03:26:09;;;;;;;7.53;2.90;;;;;;;-146.25;100.00;52542.56;2097789;28;20041;-65
2024/03/26 03:27:12;;;;;;;9.15;3.25;;;;;;;-146.25;100.00;52536.50;2097415;28;20107;-66
2024/03/26 03:28:13;;;;;;;11.75;3.15;;;;;;;-146.25;100.00;52583.13;2097508;28;20037;-65
2024/03/26 03:29:13;;;;;;;13.18;3.72;;;;;;;-146.25;100.00;52575.00;2097493;28;20049;-65
2024/03/26 03:30:14;;;;;;;11.68;3.78;;;;;;;-146.25;100.00;52570.97;2096977;28;20041;-66
2024/03/26 03:31:15;;;;;;;8.43;3.22;;;;;;;-146.25;100.00;52560.81;2097564;28;20048;-67
2024/03/26 03:32:16;;;;;;;9.95;3.65;;;;;;;-146.25;100.00;52520.28;2097618;28;20807;-66
2024/03/26 03:33:17;;;;;;;11.68;3.38;;;;;;;-146.25;100.00;52552.72;2097763;28;20399;-64
2024/03/26 03:34:17;;;;;;;10.55;3.40;;;;;;;-146.25;100.00;52581.09;2097473;28;20124;-64
2024/03/26 03:35:21;;;;;;;5.88;2.83;;;;;;;-146.25;100.00;52566.91;2097604;28;20103;-66
2024/03/26 03:36:23;;;;;;;7.97;3.45;;;;;;;-146.25;100.00;52550.69;2097659;28;20037;-67
2024/03/26 03:37:24;;;;;;;11.65;3.33;;;;;;;-146.25;100.00;52534.47;2097916;28;20806;-66
2024/03/26 03:38:25;;;;;;;10.88;3.03;;;;;;;-146.25;100.00;52583.13;2096978;28;20045;-67
2024/03/26 03:39:26;;;;;;;9.57;3.58;;;;;;;-146.25;100.00;52591.25;2097184;28;20408;-67
2024/03/26 03:40:26;;;;;;;11.38;3.42;;;;;;;-146.25;100.00;52577.03;2097477;28;20399;-66
2024/03/26 03:41:27;;;;;;;6.63;3.17;;;;;;;-146.25;100.00;52579.06;2097725;28;20088;-65
2024/03/26 03:42:28;;;;;;;6.40;3.20;;;;;;;-146.25;100.00;52556.75;2097210;28;20423;-65
2024/03/26 03:43:29;;;;;;;7.38;3.25;;;;;;;-146.25;100.00;52508.09;2097964;28;20043;-67
2024/03/26 03:44:35;;;;;;;6.68;3.00;;;;;;;-146.25;100.00;52579.06;2088565;28;20140;-66
2024/03/26 03:45:36;;;;;;;8.32;3.60;;;;;;;-146.25;100.00;52564.88;2090717;28;20045;-66
2024/03/26 03:46:36;;;;;;;8.70;3.35;;;;;;;-146.25;100.00;52585.16;2097190;28;20514;-66
2024/03/26 03:47:38;;;;;;;7.32;3.10;;;;;;;-146.25;100.00;52556.75;2105679;28;20045;-67
2024/03/26 03:48:39;;;;;;;6.47;3.30;;;;;;;-146.25;100.00;52550.69;2097012;28;20538;-65
2024/03/26 03:49:40;;;;;;;6.65;2.97;;;;;;;-146.25;100.00;52583.13;2088686;28;20041;-67
2024/03/26 03:50:40;;;;;;;9.30;3.10;;;;;;;-146.25;100.00;52554.75;2097257;28;20037;-66
2024/03/26 03:51:41;;;;;;;6.00;2.90;;;;;;;-146.25;100.00;52564.88;2097476;28;20049;-67
2024/03/26 03:52:42;;;;;;;9.90;3.30;;;;;;;-146.25;100.00;52577.03;2097038;28;20049;-65
2024/03/26 03:53:43;;;;;;;9.45;3.00;;;;;;;-146.25;100.00;52518.25;2097418;28;20095;-67
2024/03/26 03:54:44;;;;;;;6.95;3.15;;;;;;;-146.25;100.00;52560.81;2097662;28;20037;-65
2024/03/26 03:55:44;;;;;;;7.00;3.20;;;;;;;-146.25;100.00;52548.66;2105676;28;20041;-65
2024/03/26 03:56:45;;;;;;;7.50;3.08;;;;;;;-146.25;100.00;52526.34;2105295;28;20040;-65
2024/03/26 03:57:48;;;;;;;12.00;3.38;;;;;;;-146.25;100.00;52554.75;2097502;28;20099;-66
2024/03/26 03:58:49;;;;;;;12.40;3.30;;;;;;;-146.25;100.00;52575.00;2097627;28;20083;-66
2024/03/26 03:59:52;;;;;;;6.78;2.80;;;;;;;-146.25;100.00;52536.50;2096549;28;20045;-67
2024/03/26 04:00:53;;;;;;;9.40;2.97;;;;;;;-146.25;100.00;52554.75;2097460;28;20704;-66
2024/03/26 04:01:54;;;;;;;7.00;2.53;;;;;;;-146.25;100.00;52599.34;2097045;28;20037;-65
2024/03/26 04:02:56;;;;;;;9.55;3.10;;;;;;;-146.25;100.00;52556.75;2097273;28;20040;-67
2024/03/26 04:03:57;;;;;;;10.20;3.25;;;;;;;-146.25;100.00;52568.94;2081039;28;20117;-65
2024/03/26 04:04:58;;;;;;;8.15;2.90;;;;;;;-146.25;100.00;52544.59;2089257;28;20073;-65
2024/03/26 04:06:03;;;;;;;7.03;3.00;;;;;;;-146.25;100.00;52570.97;2105719;28;20100;-66
2024/03/26 04:07:03;;;;;;;8.38;2.88;;;;;;;-146.25;100.00;52583.13;2105508;28;20911;-66
2024/03/26 04:08:09;;;;;;;8.20;2.72;;;;;;;-146.25;100.00;52552.72;2096623;28;20040;-67
2024/03/26 04:09:09;;;;;;;8.48;2.85;;;;;;;-146.25;100.00;52581.09;2097828;28;20037;-65
2024/03/26 04:10:10;;;;;;;7.40;3.10;;;;;;;-146.25;100.00;52548.66;2096747;28;20037;-67
2024/03/26 04:11:11;;;;;;;10.90;3.47;;;;;;;-146.25;100.00;52570.97;2097326;28;20155;-65
2024/03/26 04:12:12;;;;;;;11.73;2.80;;;;;;;-146.25;100.00;52550.69;2097189;28;20116;-65
2024/03/26 04:13:15;;;;;;;8.65;3.05;;;;;;;-146.25;100.00;52573.00;2097388;28;20068;-65
2024/03/26 04:14:16;;;;;;;5.05;2.50;;;;;;;-146.25;100.00;52546.63;2097204;28;20358;-65
2024/03/26 04:15:17;;;;;;;7.95;2.60;;;;;;;-146.25;100.00;52548.66;2097305;28;20041;-65
2024/03/26 04:16:18;;;;;;;8.75;3.03;;;;;;;-146.25;100.00;52573.00;2097436;28;20933;-65
2024/03/26 04:17:21;;;;;;;8.35;2.65;;;;;;;-146.25;100.00;52534.47;2097159;28;20160;-65
2024/03/26 04:18:22;;;;;;;8.48;3.00;;;;;;;-146.25;100.00;52530.41;2097512;28;20111;-65
2024/03/26 04:19:23;;;;;;;9.40;3.00;;;;;;;-146.25;100.00;52558.78;2097212;28;20063;-66
2024/03/26 04:20:24;;;;;;;9.60;3.08;;;;;;;-146.25;100.00;52546.63;2097010;28;20041;-65
2024/03/26 04:21:25;;;;;;;6.75;2.65;;;;;;;-146.25;100.00;52556.75;2105661;28;20587;-65
2024/03/26 04:22:26;;;;;;;4.97;2.63;;;;;;;-146.25;100.00;52560.81;2096697;28;20037;-65
2024/03/26 04:23:29;;;;;;;8.18;2.70;;;;;;;-146.25;100.00;52562.84;2097254;28;20036;-65
2024/03/26 04:24:29;;;;;;;9.93;2.83;;;;;;;-146.25;100.00;52562.84;2105294;28;20806;-65
2024/03/26 04:25:30;;;;;;;6.97;2.85;;;;;;;-146.25;100.00;52564.88;2096688;28;20065;-65
2024/03/26 04:26:31;;;;;;;7.60;3.08;;;;;;;-146.25;100.00;52568.94;2088321;28;20038;-66
2024/03/26 04:27:32;;;;;;;7.85;2.67;;;;;;;-146.25;100.00;52562.84;2089022;28;20069;-65
2024/03/26 04:28:32;;;;;;;8.50;2.72;;;;;;;-146.25;100.00;52558.78;2088720;28;20042;-66
2024/03/26 04:29:35;;;;;;;10.82;2.88;;;;;;;-146.25;100.00;52542.56;2097356;28;20474;-66
2024/03/26 04:30:37;;;;;;;9.60;3.28;;;;;;;-146.25;100.00;52522.28;2096646;28;20049;-67
2024/03/26 04:31:37;;;;;;;6.63;2.90;;;;;;;-146.25;100.00;52581.09;2105481;28;20040;-64
2024/03/26 04:32:38;;;;;;;6.85;3.05;;;;;;;-146.25;100.00;52566.91;2105443;28;20528;-65
2024/03/26 04:33:39;;;;;;;6.22;3.00;;;;;;;-146.25;100.00;52540.53;2097184;28;20045;-67
2024/03/26 04:34:40;;;;;;;7.30;2.85;;;;;;;-146.25;100.00;52536.50;2079936;28;20046;-64
2024/03/26 04:35:41;;;;;;;9.20;3.08;;;;;;;-146.25;100.00;52570.97;2088821;28;20068;-65
2024/03/26 04:36:41;;;;;;;5.35;2.75;;;;;;;-146.25;100.00;52550.69;2105576;28;20040;-64
2024/03/26 04:37:42;;;;;;;8.10;3.45;;;;;;;-146.25;100.00;52558.78;2105748;28;20434;-66